createdAt,value
2023-01-09T00:02:50.595Z,11.20
2023-01-09T00:07:55.642Z,10.93
2023-01-09T00:12:59.017Z,12.27
2023-01-09T00:18:02.561Z,10.02
2023-01-09T00:23:07.427Z,12.52
2023-01-09T00:28:11.218Z,12.33
2023-01-09T00:38:19.345Z,11.33
2023-01-09T00:43:25.588Z,9.83
2023-01-09T00:48:30.063Z,8.77
2023-01-09T00:53:35.013Z,8.73
2023-01-09T00:58:39.213Z,8.77
2023-01-09T01:03:42.694Z,9.07
2023-01-09T01:08:47.883Z,8.50
2023-01-09T01:13:51.684Z,9.23
2023-01-09T01:23:59.867Z,9.30
2023-01-09T01:29:03.525Z,7.90
2023-01-09T01:34:07.011Z,9.48
2023-01-09T01:39:12.044Z,9.60
2023-01-09T01:44:52.555Z,8.13
2023-01-09T01:49:56.431Z,9.33
2023-01-09T02:00:06.337Z,9.07
2023-01-09T02:05:10.432Z,8.87
2023-01-09T02:10:17.057Z,8.90
2023-01-09T02:15:21.998Z,9.57
2023-01-09T02:20:47.539Z,7.27
2023-01-09T02:26:17.566Z,9.93
2023-01-09T02:31:26.736Z,8.83
2023-01-09T02:36:35.120Z,9.53
2023-01-09T02:41:46.360Z,10.10
2023-01-09T02:47:02.142Z,8.80
2023-01-09T02:52:28.342Z,9.17
2023-01-09T02:57:48.564Z,7.23
2023-01-09T03:02:57.864Z,8.23
2023-01-09T03:08:06.316Z,8.07
2023-01-09T03:13:14.334Z,7.17
2023-01-09T03:18:23.252Z,8.57
2023-01-09T03:23:26.674Z,7.33
2023-01-09T03:28:32.880Z,8.47
2023-01-09T03:38:41.746Z,8.00
2023-01-09T03:43:45.389Z,9.67
2023-01-09T03:48:50.419Z,8.77
2023-01-09T03:53:53.772Z,8.47
2023-01-09T03:58:57.364Z,8.18
2023-01-09T04:04:02.340Z,7.80
2023-01-09T04:09:06.157Z,7.23
2023-01-09T04:14:09.553Z,8.55
2023-01-09T04:19:14.545Z,7.47
2023-01-09T04:24:18.103Z,8.23
2023-01-09T04:29:21.769Z,8.40
2023-01-09T04:34:27.803Z,6.70
2023-01-09T04:39:31.367Z,7.07
2023-01-09T04:44:34.857Z,7.82
2023-01-09T04:49:39.568Z,8.25
2023-01-09T04:54:42.946Z,8.40
2023-01-09T04:59:46.654Z,5.13
2023-01-09T05:09:54.886Z,7.97
2023-01-09T05:25:08.125Z,8.20
2023-01-09T05:30:14.360Z,8.33
2023-01-09T05:35:20.407Z,8.47
2023-01-09T05:40:29.177Z,6.90
2023-01-09T05:45:35.917Z,8.83
2023-01-09T05:55:47.003Z,8.07
2023-01-09T06:00:50.665Z,8.43
2023-01-09T06:10:58.984Z,6.10
2023-01-09T06:16:02.514Z,7.30
2023-01-09T06:21:07.939Z,6.20
2023-01-09T06:26:11.478Z,5.67
2023-01-09T06:31:15.327Z,9.10
2023-01-09T06:36:22.462Z,9.80
2023-01-09T06:41:26.309Z,8.70
2023-01-09T06:46:29.946Z,8.02
2023-01-09T06:51:34.808Z,6.07
2023-01-09T06:56:38.160Z,8.10
2023-01-09T07:01:42.029Z,9.43
2023-01-09T07:06:48.960Z,7.40
2023-01-09T07:11:52.530Z,9.23
2023-01-09T07:16:56.117Z,10.23
2023-01-09T07:22:00.991Z,10.45
2023-01-09T07:27:04.713Z,9.40
2023-01-09T07:32:08.189Z,9.73
2023-01-09T07:37:13.114Z,10.13
2023-01-09T07:42:16.613Z,7.90
2023-01-09T07:47:19.995Z,9.45
2023-01-09T07:52:24.814Z,8.95
2023-01-09T07:57:30.232Z,8.53
2023-01-09T08:02:33.730Z,8.33
2023-01-09T08:07:38.532Z,10.20
2023-01-09T08:12:44.800Z,9.30
2023-01-09T08:17:48.729Z,8.10
2023-01-09T08:22:54.521Z,9.73
2023-01-09T08:27:58.168Z,6.60
2023-01-09T08:33:01.681Z,8.98
2023-01-09T08:38:06.805Z,9.75
2023-01-09T08:43:31.107Z,10.63
2023-01-09T08:48:34.621Z,6.45
2023-01-09T08:53:39.456Z,10.02
2023-01-09T08:58:42.816Z,10.43
2023-01-09T09:03:47.618Z,8.73
2023-01-09T09:08:52.527Z,8.23
2023-01-09T09:13:55.877Z,7.03
2023-01-09T09:18:59.533Z,11.13
2023-01-09T09:24:04.345Z,9.73
2023-01-09T09:29:07.996Z,9.13
2023-01-09T09:34:13.068Z,8.02
2023-01-09T09:39:17.844Z,8.27
2023-01-09T09:44:53.298Z,8.63
2023-01-09T09:50:06.458Z,7.80
2023-01-09T09:55:18.998Z,8.07
2023-01-09T10:00:25.237Z,9.73
2023-01-09T10:05:32.387Z,8.27
2023-01-09T10:10:45.829Z,8.03
2023-01-09T10:15:57.997Z,7.53
2023-01-09T10:21:08.079Z,6.83
2023-01-09T10:26:22.584Z,8.50
2023-01-09T10:31:33.554Z,7.77
2023-01-09T10:37:06.854Z,6.30
2023-01-09T10:42:20.161Z,6.10
2023-01-09T10:47:27.950Z,8.07
2023-01-09T10:52:37.243Z,7.50
2023-01-09T10:57:45.043Z,7.73
2023-01-09T11:02:49.349Z,7.40
2023-01-09T11:07:57.061Z,6.90
2023-01-09T11:13:16.366Z,4.23
2023-01-09T11:18:24.601Z,7.90
2023-01-09T11:23:32.927Z,6.97
2023-01-09T11:28:37.809Z,9.13
2023-01-09T11:33:51.850Z,7.20
2023-01-09T11:38:58.024Z,7.00
2023-01-09T11:44:05.825Z,8.90
2023-01-09T11:49:23.925Z,7.53
2023-01-09T11:54:30.187Z,6.50
2023-01-09T11:59:35.129Z,7.93
2023-01-09T12:04:44.714Z,7.83
2023-01-09T12:09:56.248Z,7.90
2023-01-09T12:15:19.160Z,7.07
2023-01-09T12:20:52.144Z,5.77
2023-01-09T12:26:05.053Z,9.13
2023-01-09T12:31:23.892Z,9.73
2023-01-09T12:36:34.508Z,7.17
2023-01-09T12:41:55.362Z,8.30
2023-01-09T12:47:16.162Z,9.20
2023-01-09T12:52:25.986Z,7.77
2023-01-09T12:57:35.319Z,8.40
2023-01-09T13:02:46.544Z,8.50
2023-01-09T13:07:55.192Z,9.33
2023-01-09T13:13:00.244Z,7.10
2023-01-09T13:18:12.371Z,7.47
2023-01-09T13:23:26.946Z,7.30
2023-01-09T13:28:36.074Z,6.80
2023-01-09T13:33:44.387Z,7.37
2023-01-09T13:38:51.603Z,5.93
2023-01-09T13:44:02.018Z,7.90
2023-01-09T13:49:09.188Z,7.90
2023-01-09T13:54:12.562Z,6.40
2023-01-09T13:59:29.151Z,7.40
2023-01-09T14:04:44.980Z,7.53
2023-01-09T14:09:53.008Z,8.80
2023-01-09T14:14:59.567Z,8.57
2023-01-09T14:20:08.617Z,7.73
2023-01-09T14:30:34.999Z,4.33
2023-01-09T14:35:49.610Z,7.10
2023-01-09T14:41:00.530Z,7.13
2023-01-09T14:46:12.669Z,7.40
2023-01-09T14:51:19.354Z,6.83
2023-01-09T14:56:29.228Z,6.47
2023-01-09T15:01:34.793Z,3.93
2023-01-09T15:06:44.529Z,8.00
2023-01-09T15:11:48.685Z,7.57
2023-01-09T15:16:52.468Z,5.77
2023-01-09T15:22:03.670Z,8.53
2023-01-09T15:27:19.400Z,5.63
2023-01-09T15:32:27.352Z,5.37
2023-01-09T15:37:38.012Z,7.37
2023-01-09T15:42:58.439Z,4.83
2023-01-09T15:48:17.837Z,6.50
2023-01-09T15:53:24.079Z,6.73
2023-01-09T15:58:29.843Z,6.57
2023-01-09T16:03:36.679Z,6.20
2023-01-09T16:08:45.092Z,8.20
2023-01-09T16:13:48.721Z,5.97
2023-01-09T16:18:53.875Z,5.20
2023-01-09T16:24:01.081Z,6.53
2023-01-09T16:29:35.042Z,6.90
2023-01-09T16:34:44.340Z,7.40
2023-01-09T16:40:24.482Z,6.27
2023-01-09T16:45:28.776Z,5.23
2023-01-09T16:50:32.252Z,6.53
2023-01-09T16:55:37.016Z,5.80
2023-01-09T17:00:40.693Z,6.87
2023-01-09T17:05:44.876Z,7.20
2023-01-09T17:10:49.946Z,7.57
2023-01-09T17:15:54.247Z,8.53
2023-01-09T17:20:59.702Z,6.20
2023-01-09T17:26:22.097Z,6.77
2023-01-09T17:31:25.694Z,6.80
2023-01-09T17:41:37.499Z,6.33
2023-01-09T17:46:42.644Z,7.10
2023-01-09T17:51:46.313Z,5.33
2023-01-09T18:01:55.770Z,6.67
2023-01-09T18:06:59.511Z,5.20
2023-01-09T18:17:07.885Z,5.83
2023-01-09T18:27:16.179Z,4.82
2023-01-09T18:32:19.542Z,4.67
2023-01-09T18:37:23.171Z,5.55
2023-01-09T18:47:31.303Z,5.40
2023-01-09T18:52:34.778Z,5.13
2023-01-09T18:57:39.863Z,5.15
2023-01-09T19:02:43.631Z,4.00
2023-01-09T19:07:47.234Z,3.53
2023-01-09T19:17:55.441Z,5.33
2023-01-09T19:28:03.618Z,5.83
2023-01-09T19:33:07.417Z,5.00
2023-01-09T19:38:11.104Z,4.77
2023-01-09T19:48:30.918Z,5.43
2023-01-09T19:53:35.579Z,4.17
2023-01-09T19:58:40.854Z,4.17
2023-01-09T20:03:45.676Z,7.33
2023-01-09T20:08:53.625Z,5.27
2023-01-09T20:13:58.833Z,4.40
2023-01-09T20:19:06.716Z,3.67
2023-01-09T20:24:12.401Z,6.37
2023-01-09T20:29:17.470Z,4.83
2023-01-09T20:34:20.899Z,3.57
2023-01-09T20:39:24.536Z,5.30
2023-01-09T20:44:29.446Z,4.83
2023-01-09T20:49:32.797Z,3.37
2023-01-09T20:54:36.101Z,3.17
2023-01-09T20:59:41.275Z,4.00
2023-01-09T21:04:44.834Z,4.70
2023-01-09T21:14:53.064Z,5.60
2023-01-09T21:19:56.964Z,4.90
2023-01-09T21:25:00.449Z,4.50
2023-01-09T21:30:06.742Z,4.78
2023-01-09T21:35:10.600Z,4.47
2023-01-09T21:40:16.996Z,2.20
2023-01-09T21:45:39.223Z,3.63
2023-01-09T21:50:42.986Z,5.83
2023-01-09T21:55:46.429Z,4.90
2023-01-09T22:00:52.341Z,4.20
2023-01-09T22:05:55.802Z,4.57
2023-01-09T22:11:01.472Z,5.70
2023-01-09T22:16:08.211Z,6.03
2023-01-09T22:21:11.879Z,5.20
2023-01-09T22:31:22.503Z,4.32
2023-01-09T22:36:27.353Z,4.70
2023-01-09T22:41:31.850Z,4.83
2023-01-09T22:51:39.908Z,5.30
2023-01-09T22:56:43.270Z,3.63
2023-01-09T23:06:51.753Z,4.83
2023-01-09T23:12:04.712Z,4.60
2023-01-09T23:17:11.769Z,4.10
2023-01-09T23:22:15.654Z,3.67
2023-01-09T23:27:19.273Z,5.10
2023-01-09T23:37:27.315Z,4.07
2023-01-09T23:47:52.737Z,4.03
2023-01-09T23:52:56.210Z,3.63
2023-01-09T23:57:59.793Z,3.38
